createdAt,value
2022-12-29T00:00:06.277Z,99779.06
2022-12-29T00:02:32.619Z,99775.97
2022-12-29T00:04:58.967Z,99774.31
2022-12-29T00:07:25.344Z,99781.84
2022-12-29T00:09:51.651Z,99773.16
2022-12-29T00:12:18.005Z,99755.66
2022-12-29T00:15:03.192Z,99764.47
2022-12-29T00:17:29.513Z,99767.81
2022-12-29T00:20:14.695Z,99749.44
2022-12-29T00:22:59.476Z,99747.47
2022-12-29T00:25:44.529Z,99754.41
2022-12-29T00:28:29.273Z,99760.75
2022-12-29T00:31:14.333Z,99763.13
2022-12-29T00:33:59.684Z,99751.75
2022-12-29T00:36:26.017Z,99725.91
2022-12-29T00:39:11.211Z,99722.62
2022-12-29T00:41:56.180Z,99725.22
2022-12-29T00:44:22.503Z,99739.84
2022-12-29T00:46:48.913Z,99735.09
2022-12-29T00:49:34.074Z,99722.53
2022-12-29T00:52:00.677Z,99739.59
2022-12-29T00:54:27.017Z,99730.06
2022-12-29T00:56:53.325Z,99720.56
2022-12-29T00:59:19.671Z,99722.06
2022-12-29T01:01:46.039Z,99716.47
2022-12-29T01:04:12.411Z,99713.00
2022-12-29T01:06:38.723Z,99711.59
2022-12-29T01:09:23.942Z,99719.16
2022-12-29T01:11:50.290Z,99712.03
2022-12-29T01:14:16.613Z,99711.72
2022-12-29T01:16:44.326Z,99699.66
2022-12-29T01:19:10.679Z,99708.72
2022-12-29T01:21:37.025Z,99713.00
2022-12-29T01:24:03.379Z,99717.19
2022-12-29T01:26:29.696Z,99720.34
2022-12-29T01:28:56.037Z,99710.69
2022-12-29T01:31:22.474Z,99706.06
2022-12-29T01:33:48.820Z,99721.97
2022-12-29T01:36:15.151Z,99713.28
2022-12-29T01:38:41.483Z,99714.53
2022-12-29T01:41:07.823Z,99707.78
2022-12-29T01:43:34.161Z,99715.81
2022-12-29T01:46:00.523Z,99714.41
2022-12-29T01:48:26.855Z,99714.66
2022-12-29T01:50:53.185Z,99706.63
2022-12-29T01:53:19.605Z,99720.41
2022-12-29T01:55:45.932Z,99706.84
2022-12-29T01:58:12.247Z,99713.25
2022-12-29T02:00:38.654Z,99697.91
2022-12-29T02:03:05.103Z,99703.22
2022-12-29T02:05:31.516Z,99695.22
2022-12-29T02:07:57.874Z,99698.91
2022-12-29T02:10:24.274Z,99682.22
2022-12-29T02:12:50.590Z,99681.78
2022-12-29T02:15:16.916Z,99675.34
2022-12-29T02:17:44.747Z,99668.22
2022-12-29T02:20:11.075Z,99662.22
2022-12-29T02:22:37.396Z,99669.84
2022-12-29T02:25:03.721Z,99665.09
2022-12-29T02:27:30.052Z,99673.16
2022-12-29T02:29:56.366Z,99672.34
2022-12-29T02:32:22.695Z,99670.19
2022-12-29T02:34:49.092Z,99666.47
2022-12-29T02:37:15.461Z,99669.09
2022-12-29T02:39:41.834Z,99663.78
2022-12-29T02:42:08.160Z,99657.97
2022-12-29T02:44:34.464Z,99662.28
2022-12-29T02:47:00.875Z,99658.56
2022-12-29T02:49:28.715Z,99648.63
2022-12-29T02:51:55.544Z,99654.97
2022-12-29T02:54:40.854Z,99651.41
2022-12-29T02:57:07.185Z,99652.91
2022-12-29T02:59:33.793Z,99644.69
2022-12-29T03:02:18.793Z,99643.87
2022-12-29T03:04:45.222Z,99648.66
2022-12-29T03:07:11.568Z,99647.72
2022-12-29T03:09:37.990Z,99638.41
2022-12-29T03:12:10.613Z,99644.66
2022-12-29T03:14:55.797Z,99634.19
2022-12-29T03:17:22.115Z,99643.34
2022-12-29T03:19:48.435Z,99634.69
2022-12-29T03:22:32.281Z,99636.63
2022-12-29T03:24:58.594Z,99639.50
2022-12-29T03:27:25.032Z,99633.75
2022-12-29T03:29:54.305Z,99625.34
2022-12-29T03:32:20.617Z,99626.38
2022-12-29T03:34:46.980Z,99639.28
2022-12-29T03:37:13.317Z,99634.03
2022-12-29T03:39:39.677Z,99628.84
2022-12-29T03:42:05.997Z,99633.22
2022-12-29T03:44:32.349Z,99633.81
2022-12-29T03:46:58.663Z,99625.84
2022-12-29T03:49:25.000Z,99616.12
2022-12-29T03:51:52.079Z,99619.63
2022-12-29T03:54:18.457Z,99615.34
2022-12-29T03:56:44.767Z,99626.50
2022-12-29T03:59:11.093Z,99615.34
2022-12-29T04:01:37.532Z,99624.19
2022-12-29T04:04:03.913Z,99612.13
2022-12-29T04:06:30.260Z,99617.91
2022-12-29T04:08:56.607Z,99606.91
2022-12-29T04:11:23.837Z,99593.66
2022-12-29T04:13:52.453Z,99603.06
2022-12-29T04:16:18.929Z,99598.41
2022-12-29T04:18:45.260Z,99589.97
2022-12-29T04:21:11.566Z,99607.47
2022-12-29T04:23:37.913Z,99599.22
2022-12-29T04:26:04.226Z,99595.88
2022-12-29T04:28:30.567Z,99599.59
2022-12-29T04:30:57.243Z,99592.62
2022-12-29T04:33:23.643Z,99597.41
2022-12-29T04:35:50.031Z,99604.78
2022-12-29T04:38:16.351Z,99596.34
2022-12-29T04:40:43.576Z,99598.78
2022-12-29T04:43:09.935Z,99598.53
2022-12-29T04:45:36.277Z,99602.38
2022-12-29T04:48:02.590Z,99601.91
2022-12-29T04:50:28.904Z,99602.84
2022-12-29T04:52:55.275Z,99594.94
2022-12-29T04:55:21.609Z,99599.94
2022-12-29T04:57:48.019Z,99598.88
2022-12-29T05:00:14.601Z,99605.84
2022-12-29T05:02:41.083Z,99606.44
2022-12-29T05:05:07.500Z,99601.34
2022-12-29T05:07:34.563Z,99601.91
2022-12-29T05:10:00.881Z,99610.38
2022-12-29T05:12:27.182Z,99609.94
2022-12-29T05:14:53.496Z,99613.63
2022-12-29T05:17:19.809Z,99615.56
2022-12-29T05:19:46.117Z,99608.62
2022-12-29T05:22:15.878Z,99617.16
2022-12-29T05:24:42.210Z,99612.66
2022-12-29T05:27:08.542Z,99608.19
2022-12-29T05:29:34.880Z,99604.81
2022-12-29T05:32:01.241Z,99608.97
2022-12-29T05:34:27.578Z,99607.22
2022-12-29T05:36:53.923Z,99608.03
2022-12-29T05:39:20.228Z,99611.69
2022-12-29T05:41:47.531Z,99610.31
2022-12-29T05:44:13.855Z,99612.94
2022-12-29T05:46:40.233Z,99615.16
2022-12-29T05:49:06.594Z,99626.06
2022-12-29T05:51:32.961Z,99622.56
2022-12-29T05:53:59.501Z,99619.06
2022-12-29T05:56:25.816Z,99606.13
2022-12-29T05:58:52.196Z,99608.12
2022-12-29T06:01:18.747Z,99612.75
2022-12-29T06:03:48.371Z,99613.69
2022-12-29T06:06:15.053Z,99617.78
2022-12-29T06:08:41.367Z,99611.22
2022-12-29T06:11:07.671Z,99621.84
2022-12-29T06:13:34.004Z,99621.84
2022-12-29T06:16:00.383Z,99622.81
2022-12-29T06:18:26.746Z,99630.00
2022-12-29T06:20:53.104Z,99624.53
2022-12-29T06:23:19.773Z,99621.22
2022-12-29T06:25:46.120Z,99623.72
2022-12-29T06:28:12.825Z,99628.13
2022-12-29T06:30:39.146Z,99627.06
2022-12-29T06:33:05.475Z,99623.91
2022-12-29T06:35:31.846Z,99621.47
2022-12-29T06:37:58.496Z,99609.94
2022-12-29T06:40:24.811Z,99612.41
2022-12-29T06:42:51.122Z,99613.84
2022-12-29T06:45:17.498Z,99598.19
2022-12-29T06:47:43.801Z,99605.09
2022-12-29T06:50:10.150Z,99599.84
2022-12-29T06:52:36.832Z,99601.50
2022-12-29T06:55:03.156Z,99598.72
2022-12-29T06:57:29.505Z,99601.50
2022-12-29T06:59:56.853Z,99604.37
2022-12-29T07:02:23.358Z,99611.56
2022-12-29T07:04:49.705Z,99613.37
2022-12-29T07:07:16.093Z,99617.84
2022-12-29T07:09:43.837Z,99608.75
2022-12-29T07:12:10.166Z,99603.00
2022-12-29T07:14:42.944Z,99601.59
2022-12-29T07:17:09.739Z,99596.69
2022-12-29T07:19:36.062Z,99604.66
2022-12-29T07:22:06.069Z,99618.69
2022-12-29T07:24:32.402Z,99612.09
2022-12-29T07:26:58.749Z,99623.72
2022-12-29T07:29:25.421Z,99621.75
2022-12-29T07:31:52.044Z,99632.09
2022-12-29T07:34:18.450Z,99629.97
2022-12-29T07:36:44.887Z,99638.94
2022-12-29T07:39:12.674Z,99639.56
2022-12-29T07:41:38.996Z,99636.06
2022-12-29T07:44:05.347Z,99623.72
2022-12-29T07:46:53.697Z,99608.88
2022-12-29T07:49:17.946Z,99615.28
2022-12-29T07:51:44.282Z,99608.94
2022-12-29T07:54:12.805Z,99604.72
2022-12-29T07:56:39.214Z,99616.16
2022-12-29T07:59:05.530Z,99614.19
2022-12-29T08:01:31.972Z,99617.44
2022-12-29T08:03:58.416Z,99622.28
2022-12-29T08:06:24.807Z,99628.50
2022-12-29T08:08:51.145Z,99628.41
2022-12-29T08:11:17.486Z,99634.00
2022-12-29T08:13:43.798Z,99632.09
2022-12-29T08:16:10.267Z,99636.53
2022-12-29T08:18:36.743Z,99641.59
2022-12-29T08:21:03.111Z,99652.19
2022-12-29T08:23:29.446Z,99654.72
2022-12-29T08:25:55.775Z,99653.00
2022-12-29T08:28:22.120Z,99657.28
2022-12-29T08:30:48.474Z,99659.97
2022-12-29T08:33:15.053Z,99661.12
2022-12-29T08:35:41.361Z,99661.88
2022-12-29T08:40:42.794Z,99657.75
2022-12-29T08:43:09.117Z,99654.38
2022-12-29T08:45:35.434Z,99656.22
2022-12-29T08:48:01.776Z,99655.44
2022-12-29T08:50:28.081Z,99651.34
2022-12-29T08:52:54.480Z,99646.81
2022-12-29T08:55:20.812Z,99656.00
2022-12-29T08:57:47.143Z,99654.25
2022-12-29T09:00:13.507Z,99650.22
2022-12-29T09:02:40.030Z,99648.81
2022-12-29T09:05:06.720Z,99644.72
2022-12-29T09:07:33.048Z,99638.75
2022-12-29T09:09:59.362Z,99636.56
2022-12-29T09:12:25.691Z,99627.00
2022-12-29T09:14:52.104Z,99637.22
2022-12-29T09:17:37.180Z,99627.16
2022-12-29T09:20:03.532Z,99625.31
2022-12-29T09:22:29.867Z,99633.66
2022-12-29T09:24:56.173Z,99624.38
2022-12-29T09:27:22.537Z,99625.63
2022-12-29T09:29:48.961Z,99632.59
2022-12-29T09:32:18.585Z,99637.44
2022-12-29T09:34:45.669Z,99624.59
2022-12-29T09:37:12.117Z,99627.19
2022-12-29T09:39:39.004Z,99634.34
2022-12-29T09:42:05.321Z,99640.13
2022-12-29T09:44:31.638Z,99643.87
2022-12-29T09:46:57.967Z,99624.31
2022-12-29T09:49:24.445Z,99631.88
2022-12-29T09:51:50.774Z,99632.56
2022-12-29T09:54:21.917Z,99630.78
2022-12-29T09:56:48.287Z,99634.19
2022-12-29T09:59:14.626Z,99636.78
2022-12-29T10:01:41.143Z,99640.53
2022-12-29T10:04:08.276Z,99624.06
2022-12-29T10:06:38.271Z,99625.66
2022-12-29T10:09:12.020Z,99625.38
2022-12-29T10:11:38.347Z,99622.84
2022-12-29T10:14:04.784Z,99613.63
2022-12-29T10:16:31.298Z,99619.28
2022-12-29T10:18:57.651Z,99630.09
2022-12-29T10:21:23.999Z,99632.09
2022-12-29T10:23:50.355Z,99628.91
2022-12-29T10:26:16.699Z,99601.53
2022-12-29T10:28:43.047Z,99613.53
2022-12-29T10:31:09.373Z,99625.22
2022-12-29T10:33:35.719Z,99628.09
2022-12-29T10:36:02.023Z,99618.25
2022-12-29T10:38:28.456Z,99610.25
2022-12-29T10:40:54.779Z,99611.91
2022-12-29T10:43:21.380Z,99615.88
2022-12-29T10:45:47.806Z,99616.97
2022-12-29T10:48:14.226Z,99618.75
2022-12-29T10:50:43.982Z,99602.03
2022-12-29T10:53:10.439Z,99594.22
2022-12-29T10:55:36.833Z,99588.38
2022-12-29T10:58:05.765Z,99582.34
2022-12-29T11:00:32.081Z,99585.94
2022-12-29T11:02:58.437Z,99581.28
2022-12-29T11:05:24.838Z,99578.12
2022-12-29T11:07:51.246Z,99572.25
2022-12-29T11:10:17.772Z,99580.25
2022-12-29T11:12:44.079Z,99572.19
2022-12-29T11:15:10.395Z,99581.75
2022-12-29T11:17:36.709Z,99578.69
2022-12-29T11:20:05.449Z,99570.56
2022-12-29T11:22:31.813Z,99570.53
2022-12-29T11:24:58.135Z,99575.97
2022-12-29T11:27:24.482Z,99580.03
2022-12-29T11:29:50.807Z,99568.94
2022-12-29T11:32:17.986Z,99563.62
2022-12-29T11:34:46.557Z,99580.44
2022-12-29T11:37:12.875Z,99586.53
2022-12-29T11:39:39.327Z,99574.63
2022-12-29T11:42:05.664Z,99562.03
2022-12-29T11:44:31.972Z,99570.31
2022-12-29T11:46:58.301Z,99566.94
2022-12-29T11:49:24.658Z,99579.81
2022-12-29T11:51:51.173Z,99560.53
2022-12-29T11:54:17.509Z,99564.00
2022-12-29T11:56:44.052Z,99558.50
2022-12-29T11:59:10.386Z,99555.88
2022-12-29T12:01:36.785Z,99556.09
2022-12-29T12:04:03.275Z,99573.97
2022-12-29T12:06:29.673Z,99560.34
2022-12-29T12:08:55.981Z,99551.78
2022-12-29T12:11:25.137Z,99550.81
2022-12-29T12:13:51.461Z,99548.47
2022-12-29T12:16:17.983Z,99552.00
2022-12-29T12:18:44.354Z,99558.87
2022-12-29T12:21:10.755Z,99556.31
2022-12-29T12:23:37.101Z,99555.16
2022-12-29T12:26:03.655Z,99549.97
2022-12-29T12:28:36.316Z,99555.56
2022-12-29T12:31:03.016Z,99538.06
2022-12-29T12:33:29.353Z,99558.00
2022-12-29T12:35:55.811Z,99546.13
2022-12-29T12:38:22.170Z,99548.53
2022-12-29T12:40:48.482Z,99546.53
2022-12-29T12:43:14.836Z,99531.34
2022-12-29T12:45:41.305Z,99539.78
2022-12-29T12:48:07.637Z,99524.97
2022-12-29T12:50:33.963Z,99529.31
2022-12-29T12:53:00.292Z,99528.53
2022-12-29T12:55:26.607Z,99527.31
2022-12-29T12:57:52.959Z,99524.09
2022-12-29T13:00:19.832Z,99530.53
2022-12-29T13:02:46.391Z,99520.22
2022-12-29T13:05:12.802Z,99528.53
2022-12-29T13:07:39.199Z,99519.47
2022-12-29T13:10:05.496Z,99515.53
2022-12-29T13:12:31.828Z,99519.25
2022-12-29T13:14:58.193Z,99509.22
2022-12-29T13:17:24.508Z,99515.34
2022-12-29T13:19:50.863Z,99509.84
2022-12-29T13:22:17.173Z,99514.22
2022-12-29T13:24:44.703Z,99518.22
2022-12-29T13:27:11.324Z,99521.81
2022-12-29T13:29:37.662Z,99521.31
2022-12-29T13:32:04.676Z,99522.69
2022-12-29T13:34:31.008Z,99516.19
2022-12-29T13:36:57.415Z,99513.13
2022-12-29T13:39:23.875Z,99536.31
2022-12-29T13:41:52.211Z,99527.50
2022-12-29T13:44:18.790Z,99530.88
2022-12-29T13:46:45.519Z,99528.06
2022-12-29T13:49:11.909Z,99534.84
2022-12-29T13:51:38.232Z,99534.06
2022-12-29T13:54:04.563Z,99530.34
2022-12-29T13:56:30.903Z,99529.09
2022-12-29T13:58:57.238Z,99538.69
2022-12-29T14:01:24.226Z,99547.97
2022-12-29T14:03:51.680Z,99543.50
2022-12-29T14:06:18.201Z,99549.84
2022-12-29T14:08:45.004Z,99551.31
2022-12-29T14:13:42.825Z,99543.00
2022-12-29T14:16:09.182Z,99546.59
2022-12-29T14:18:35.589Z,99547.38
2022-12-29T14:21:01.944Z,99552.53
2022-12-29T14:23:28.417Z,99556.78
2022-12-29T14:25:54.760Z,99553.97
2022-12-29T14:28:21.192Z,99560.69
2022-12-29T14:30:47.505Z,99559.03
2022-12-29T14:33:14.179Z,99558.94
2022-12-29T14:35:40.553Z,99561.81
2022-12-29T14:38:06.964Z,99548.06
2022-12-29T14:40:34.761Z,99552.53
2022-12-29T14:43:01.591Z,99563.44
2022-12-29T14:45:27.919Z,99559.00
2022-12-29T14:47:54.795Z,99562.94
2022-12-29T14:50:22.736Z,99574.09
2022-12-29T14:52:49.088Z,99574.19
2022-12-29T14:55:15.421Z,99580.97
2022-12-29T14:57:41.799Z,99572.97
2022-12-29T15:00:08.161Z,99565.28
2022-12-29T15:02:34.575Z,99573.13
2022-12-29T15:05:01.114Z,99561.06
2022-12-29T15:07:27.445Z,99567.63
2022-12-29T15:09:53.753Z,99583.13
2022-12-29T15:12:20.139Z,99556.25
2022-12-29T15:14:46.464Z,99569.06
2022-12-29T15:17:12.804Z,99580.56
2022-12-29T15:19:39.688Z,99579.94
2022-12-29T15:22:05.993Z,99589.22
2022-12-29T15:24:33.860Z,99590.97
2022-12-29T15:27:02.970Z,99586.50
2022-12-29T15:29:29.270Z,99598.97
2022-12-29T15:31:55.701Z,99604.81
2022-12-29T15:34:22.169Z,99600.97
2022-12-29T15:36:48.491Z,99605.34
2022-12-29T15:39:14.800Z,99608.38
2022-12-29T15:42:00.020Z,99612.34
2022-12-29T15:44:26.472Z,99613.47
2022-12-29T15:46:53.121Z,99619.94
2022-12-29T15:49:19.437Z,99625.59
2022-12-29T15:51:45.843Z,99632.25
2022-12-29T15:54:12.211Z,99651.44
2022-12-29T15:56:38.525Z,99649.22
2022-12-29T15:59:04.842Z,99671.25
2022-12-29T16:01:31.271Z,99663.56
2022-12-29T16:03:58.018Z,99670.22
2022-12-29T16:06:24.366Z,99665.25
2022-12-29T16:08:50.718Z,99672.75
2022-12-29T16:11:17.070Z,99683.72
2022-12-29T16:13:43.439Z,99686.63
2022-12-29T16:16:09.757Z,99682.91
2022-12-29T16:18:36.123Z,99683.47
2022-12-29T16:21:02.461Z,99685.56
2022-12-29T16:23:28.851Z,99680.84
2022-12-29T16:25:55.967Z,99691.06
2022-12-29T16:28:22.289Z,99677.06
2022-12-29T16:30:48.693Z,99685.09
2022-12-29T16:33:15.040Z,99689.53
2022-12-29T16:35:41.403Z,99682.53
2022-12-29T16:38:08.167Z,99704.75
2022-12-29T16:40:34.480Z,99695.06
2022-12-29T16:43:00.839Z,99696.16
2022-12-29T16:45:27.171Z,99691.06
2022-12-29T16:47:53.475Z,99702.38
2022-12-29T16:50:28.202Z,99707.97
2022-12-29T16:52:54.846Z,99699.75
2022-12-29T16:55:21.270Z,99705.69
2022-12-29T16:57:47.668Z,99703.66
2022-12-29T17:00:14.032Z,99726.34
2022-12-29T17:02:46.045Z,99727.78
2022-12-29T17:05:12.690Z,99724.47
2022-12-29T17:07:38.997Z,99724.97
2022-12-29T17:10:05.986Z,99724.75
2022-12-29T17:12:32.349Z,99717.78
2022-12-29T17:14:58.714Z,99738.09
2022-12-29T17:17:25.023Z,99727.28
2022-12-29T17:19:51.428Z,99733.59
2022-12-29T17:22:17.806Z,99733.34
2022-12-29T17:24:44.177Z,99722.44
2022-12-29T17:27:10.524Z,99725.13
2022-12-29T17:29:36.852Z,99731.12
2022-12-29T17:32:04.696Z,99725.44
2022-12-29T17:34:31.062Z,99746.84
2022-12-29T17:39:29.051Z,99747.50
2022-12-29T17:41:55.357Z,99741.19
2022-12-29T17:46:57.678Z,99743.06
2022-12-29T17:49:24.004Z,99742.63
2022-12-29T17:51:50.315Z,99735.22
2022-12-29T17:54:16.637Z,99733.06
2022-12-29T17:56:43.223Z,99733.16
2022-12-29T17:59:09.885Z,99741.34
2022-12-29T18:01:39.943Z,99741.16
2022-12-29T18:04:08.837Z,99740.41
2022-12-29T18:06:35.206Z,99743.38
2022-12-29T18:09:01.538Z,99750.25
2022-12-29T18:11:27.857Z,99743.78
2022-12-29T18:13:54.204Z,99749.69
2022-12-29T18:16:20.572Z,99748.87
2022-12-29T18:18:46.951Z,99744.59
2022-12-29T18:21:13.317Z,99756.19
2022-12-29T18:23:40.111Z,99746.19
2022-12-29T18:26:06.536Z,99744.09
2022-12-29T18:28:32.879Z,99755.25
2022-12-29T18:30:59.318Z,99751.09
2022-12-29T18:33:26.802Z,99741.69
2022-12-29T18:35:53.301Z,99745.38
2022-12-29T18:38:19.619Z,99753.41
2022-12-29T18:40:45.917Z,99758.41
2022-12-29T18:43:12.318Z,99752.97
2022-12-29T18:45:38.624Z,99755.56
2022-12-29T18:48:04.940Z,99756.69
2022-12-29T18:50:31.565Z,99744.41
2022-12-29T18:53:03.591Z,99746.75
2022-12-29T18:55:30.391Z,99743.63
2022-12-29T18:57:58.844Z,99744.31
2022-12-29T19:00:25.165Z,99740.81
2022-12-29T19:02:51.614Z,99737.91
2022-12-29T19:05:18.085Z,99742.31
2022-12-29T19:07:44.427Z,99745.47
2022-12-29T19:10:13.760Z,99747.78
2022-12-29T19:12:40.092Z,99737.34
2022-12-29T19:15:07.237Z,99741.28
2022-12-29T19:17:33.587Z,99753.97
2022-12-29T19:19:59.897Z,99733.72
2022-12-29T19:22:26.218Z,99737.34
2022-12-29T19:24:59.598Z,99741.63
2022-12-29T19:27:26.291Z,99740.81
2022-12-29T19:29:52.607Z,99730.94
2022-12-29T19:32:18.917Z,99726.28
2022-12-29T19:34:45.924Z,99736.84
2022-12-29T19:37:12.289Z,99744.66
2022-12-29T19:39:38.715Z,99753.59
2022-12-29T19:42:05.800Z,99742.09
2022-12-29T19:44:32.141Z,99747.91
2022-12-29T19:46:58.507Z,99743.06
2022-12-29T19:49:24.877Z,99744.31
2022-12-29T19:51:51.242Z,99749.06
2022-12-29T19:54:17.557Z,99737.72
2022-12-29T19:56:44.489Z,99746.53
2022-12-29T19:59:10.821Z,99731.53
2022-12-29T20:01:37.337Z,99724.91
2022-12-29T20:04:04.282Z,99734.94
2022-12-29T20:06:30.617Z,99727.28
2022-12-29T20:08:57.000Z,99721.94
2022-12-29T20:11:23.397Z,99729.50
2022-12-29T20:13:49.840Z,99718.47
2022-12-29T20:16:16.320Z,99720.81
2022-12-29T20:18:42.853Z,99728.69
2022-12-29T20:21:09.256Z,99727.75
2022-12-29T20:23:35.570Z,99732.31
2022-12-29T20:26:01.980Z,99738.19
2022-12-29T20:28:28.343Z,99733.69
2022-12-29T20:30:54.657Z,99736.13
2022-12-29T20:33:20.971Z,99728.34
2022-12-29T20:35:47.377Z,99723.38
2022-12-29T20:38:13.772Z,99728.94
2022-12-29T20:40:46.190Z,99732.75
2022-12-29T20:43:13.065Z,99727.53
2022-12-29T20:45:40.382Z,99733.09
2022-12-29T20:48:06.751Z,99734.72
2022-12-29T20:50:33.087Z,99733.91
2022-12-29T20:52:59.406Z,99726.47
2022-12-29T20:55:25.799Z,99727.63
2022-12-29T21:00:40.821Z,99731.00
2022-12-29T21:03:07.305Z,99740.63
2022-12-29T21:05:33.696Z,99751.53
2022-12-29T21:08:00.162Z,99750.75
2022-12-29T21:10:26.499Z,99747.59
2022-12-29T21:12:52.870Z,99754.12
2022-12-29T21:15:19.251Z,99765.37
2022-12-29T21:17:45.601Z,99757.34
2022-12-29T21:20:19.844Z,99756.53
2022-12-29T21:22:46.637Z,99753.19
2022-12-29T21:25:13.137Z,99766.41
2022-12-29T21:27:43.105Z,99766.28
2022-12-29T21:30:11.230Z,99773.59
2022-12-29T21:32:37.616Z,99780.34
2022-12-29T21:35:04.060Z,99781.50
2022-12-29T21:37:30.393Z,99786.63
2022-12-29T21:39:57.014Z,99783.34
2022-12-29T21:42:23.415Z,99784.16
2022-12-29T21:45:08.591Z,99792.31
2022-12-29T21:47:53.657Z,99795.66
2022-12-29T21:50:19.991Z,99794.06
2022-12-29T21:52:46.305Z,99799.72
2022-12-29T21:55:12.623Z,99806.91
2022-12-29T21:57:57.879Z,99810.50
2022-12-29T22:00:42.876Z,99809.56
2022-12-29T22:03:27.992Z,99818.63
2022-12-29T22:06:13.283Z,99821.75
2022-12-29T22:08:58.228Z,99825.44
2022-12-29T22:11:43.143Z,99818.50
2022-12-29T22:14:09.482Z,99844.59
2022-12-29T22:16:35.785Z,99842.84
2022-12-29T22:19:02.403Z,99843.19
2022-12-29T22:21:28.775Z,99852.44
2022-12-29T22:23:55.112Z,99852.09
2022-12-29T22:26:21.700Z,99855.44
2022-12-29T22:28:48.321Z,99854.28
2022-12-29T22:31:14.650Z,99863.34
2022-12-29T22:33:40.970Z,99861.97
2022-12-29T22:36:07.291Z,99861.88
2022-12-29T22:38:33.601Z,99864.75
2022-12-29T22:41:00.630Z,99859.75
2022-12-29T22:43:29.980Z,99850.13
2022-12-29T22:45:56.384Z,99860.44
2022-12-29T22:48:22.848Z,99866.50
2022-12-29T22:50:49.174Z,99861.25
2022-12-29T22:53:15.500Z,99854.88
2022-12-29T22:55:41.806Z,99866.00
2022-12-29T22:58:08.145Z,99855.47
2022-12-29T23:00:34.483Z,99864.97
2022-12-29T23:03:00.961Z,99857.13
2022-12-29T23:05:27.440Z,99858.53
2022-12-29T23:07:53.762Z,99858.16
2022-12-29T23:10:20.121Z,99866.88
2022-12-29T23:12:46.455Z,99867.81
2022-12-29T23:15:13.617Z,99878.16
2022-12-29T23:17:39.916Z,99886.81
2022-12-29T23:20:06.232Z,99884.63
2022-12-29T23:22:32.552Z,99879.53
2022-12-29T23:24:58.879Z,99880.78
2022-12-29T23:27:25.176Z,99877.31
2022-12-29T23:29:51.511Z,99876.25
2022-12-29T23:32:17.863Z,99865.25
2022-12-29T23:34:44.175Z,99875.22
2022-12-29T23:37:10.493Z,99878.81
2022-12-29T23:39:36.852Z,99879.03
2022-12-29T23:42:03.168Z,99878.34
2022-12-29T23:44:30.027Z,99869.16
2022-12-29T23:46:56.394Z,99876.78
2022-12-29T23:49:23.154Z,99875.66
2022-12-29T23:51:49.482Z,99886.16
2022-12-29T23:54:15.848Z,99893.19
2022-12-29T23:56:42.161Z,99898.97
2022-12-29T23:59:08.477Z,99890.31
